Terminal Aerodrome Forecast
Issued by NWS Wichita, KS

Home | Current Version | Previous Version | Text Only | Print | Product List | Glossary On
Versions: 1 2 3 4 5 6 7 8 9 10 11 12 13
000
FTUS43 KICT 201137
TAFICT
TAF
KICT 201137Z 2012/2112 18010KT 6SM BR SCT003 BKN006
     FM201500 19011KT P6SM SCT008 BKN100
     FM201600 20013G19KT P6SM BKN100
     FM210000 23008KT P6SM SKC
     FM210300 35010KT P6SM SKC=

USA.gov is the U.S. government's official web portal to all federal, state and local government web resources and services.